sensor_id;sensor_type;location;lat;lon;timestamp;temperature;humidity
11035;DHT22;5571;48.110;-1.706;2023-11-18T00:01:49;10.90;99.90
11035;DHT22;5571;48.110;-1.706;2023-11-18T00:04:15;10.90;99.90
11035;DHT22;5571;48.110;-1.706;2023-11-18T00:06:44;10.90;99.90
11035;DHT22;5571;48.110;-1.706;2023-11-18T00:09:13;10.80;99.90
11035;DHT22;5571;48.110;-1.706;2023-11-18T00:11:39;10.90;99.90
11035;DHT22;5571;48.110;-1.706;2023-11-18T00:14:05;10.90;99.90
11035;DHT22;5571;48.110;-1.706;2023-11-18T00:16:31;10.90;99.90
11035;DHT22;5571;48.110;-1.706;2023-11-18T00:18:57;10.80;99.90
11035;DHT22;5571;48.110;-1.706;2023-11-18T00:21:24;10.80;99.90
11035;DHT22;5571;48.110;-1.706;2023-11-18T00:23:50;10.80;99.90
11035;DHT22;5571;48.110;-1.706;2023-11-18T00:26:16;10.80;99.90
11035;DHT22;5571;48.110;-1.706;2023-11-18T00:28:42;10.80;99.90
11035;DHT22;5571;48.110;-1.706;2023-11-18T00:31:07;10.90;99.90
11035;DHT22;5571;48.110;-1.706;2023-11-18T00:33:33;10.90;99.90
11035;DHT22;5571;48.110;-1.706;2023-11-18T00:35:58;10.90;99.90
11035;DHT22;5571;48.110;-1.706;2023-11-18T00:38:26;10.90;99.90
11035;DHT22;5571;48.110;-1.706;2023-11-18T00:40:52;10.90;99.90
11035;DHT22;5571;48.110;-1.706;2023-11-18T00:43:17;11.00;99.90
11035;DHT22;5571;48.110;-1.706;2023-11-18T00:45:43;11.00;99.90
11035;DHT22;5571;48.110;-1.706;2023-11-18T00:48:12;11.00;99.90
11035;DHT22;5571;48.110;-1.706;2023-11-18T00:50:37;11.10;99.90
11035;DHT22;5571;48.110;-1.706;2023-11-18T00:53:03;11.10;99.90
11035;DHT22;5571;48.110;-1.706;2023-11-18T00:55:30;11.10;99.90
11035;DHT22;5571;48.110;-1.706;2023-11-18T00:57:57;11.20;99.90
11035;DHT22;5571;48.110;-1.706;2023-11-18T01:00:23;11.20;99.90
11035;DHT22;5571;48.110;-1.706;2023-11-18T01:02:51;11.20;99.90
11035;DHT22;5571;48.110;-1.706;2023-11-18T01:05:18;11.20;99.90
11035;DHT22;5571;48.110;-1.706;2023-11-18T01:07:44;11.30;99.90
11035;DHT22;5571;48.110;-1.706;2023-11-18T01:10:10;11.30;99.90
11035;DHT22;5571;48.110;-1.706;2023-11-18T01:12:37;11.30;99.90
11035;DHT22;5571;48.110;-1.706;2023-11-18T01:15:03;11.30;99.90
11035;DHT22;5571;48.110;-1.706;2023-11-18T01:17:29;11.30;99.90
11035;DHT22;5571;48.110;-1.706;2023-11-18T01:19:56;11.30;99.90
11035;DHT22;5571;48.110;-1.706;2023-11-18T01:22:22;11.40;99.90
11035;DHT22;5571;48.110;-1.706;2023-11-18T01:24:48;11.40;99.90
11035;DHT22;5571;48.110;-1.706;2023-11-18T01:27:13;11.40;99.90
11035;DHT22;5571;48.110;-1.706;2023-11-18T01:29:39;11.50;99.90
11035;DHT22;5571;48.110;-1.706;2023-11-18T01:32:07;11.50;99.90
11035;DHT22;5571;48.110;-1.706;2023-11-18T01:34:37;11.50;99.90
11035;DHT22;5571;48.110;-1.706;2023-11-18T01:37:06;11.60;99.90
11035;DHT22;5571;48.110;-1.706;2023-11-18T01:39:33;11.60;99.90
11035;DHT22;5571;48.110;-1.706;2023-11-18T01:41:59;11.60;99.90
11035;DHT22;5571;48.110;-1.706;2023-11-18T01:44:25;11.60;99.90
11035;DHT22;5571;48.110;-1.706;2023-11-18T01:46:54;11.60;99.90
11035;DHT22;5571;48.110;-1.706;2023-11-18T01:49:20;11.60;99.90
11035;DHT22;5571;48.110;-1.706;2023-11-18T01:51:46;11.60;99.90
11035;DHT22;5571;48.110;-1.706;2023-11-18T01:54:12;11.60;99.90
11035;DHT22;5571;48.110;-1.706;2023-11-18T01:56:43;11.50;99.90
11035;DHT22;5571;48.110;-1.706;2023-11-18T01:59:09;11.60;99.90
11035;DHT22;5571;48.110;-1.706;2023-11-18T02:01:35;11.50;99.90
11035;DHT22;5571;48.110;-1.706;2023-11-18T02:04:03;11.60;99.90
11035;DHT22;5571;48.110;-1.706;2023-11-18T02:06:31;11.60;99.90
11035;DHT22;5571;48.110;-1.706;2023-11-18T02:08:56;11.60;99.90
11035;DHT22;5571;48.110;-1.706;2023-11-18T02:11:31;11.60;99.90
11035;DHT22;5571;48.110;-1.706;2023-11-18T02:14:07;11.60;99.90
11035;DHT22;5571;48.110;-1.706;2023-11-18T02:16:37;11.60;99.90
11035;DHT22;5571;48.110;-1.706;2023-11-18T02:19:04;11.70;99.90
11035;DHT22;5571;48.110;-1.706;2023-11-18T02:21:32;11.60;99.90
11035;DHT22;5571;48.110;-1.706;2023-11-18T02:23:59;11.70;99.90
11035;DHT22;5571;48.110;-1.706;2023-11-18T02:26:25;11.70;99.90
11035;DHT22;5571;48.110;-1.706;2023-11-18T02:28:51;11.70;99.90
11035;DHT22;5571;48.110;-1.706;2023-11-18T02:31:25;11.70;99.90
11035;DHT22;5571;48.110;-1.706;2023-11-18T02:34:00;11.70;99.90
11035;DHT22;5571;48.110;-1.706;2023-11-18T02:36:35;11.70;99.90
11035;DHT22;5571;48.110;-1.706;2023-11-18T02:40:03;11.70;99.90
11035;DHT22;5571;48.110;-1.706;2023-11-18T02:42:04;11.70;99.90
11035;DHT22;5571;48.110;-1.706;2023-11-18T02:44:35;11.70;99.90
11035;DHT22;5571;48.110;-1.706;2023-11-18T02:47:01;11.70;99.90
11035;DHT22;5571;48.110;-1.706;2023-11-18T02:49:29;11.70;99.90
11035;DHT22;5571;48.110;-1.706;2023-11-18T02:51:54;11.80;99.90
11035;DHT22;5571;48.110;-1.706;2023-11-18T02:54:21;11.80;99.90
11035;DHT22;5571;48.110;-1.706;2023-11-18T02:56:47;11.70;99.90
11035;DHT22;5571;48.110;-1.706;2023-11-18T02:59:12;11.70;99.90
11035;DHT22;5571;48.110;-1.706;2023-11-18T03:01:38;11.80;99.90
11035;DHT22;5571;48.110;-1.706;2023-11-18T03:04:06;11.80;99.90
11035;DHT22;5571;48.110;-1.706;2023-11-18T03:06:34;11.90;99.90
11035;DHT22;5571;48.110;-1.706;2023-11-18T03:09:01;11.90;99.90
11035;DHT22;5571;48.110;-1.706;2023-11-18T03:11:26;11.90;99.90
11035;DHT22;5571;48.110;-1.706;2023-11-18T03:13:55;12.00;99.90
11035;DHT22;5571;48.110;-1.706;2023-11-18T03:16:22;12.00;99.90
11035;DHT22;5571;48.110;-1.706;2023-11-18T03:18:50;12.00;99.90
11035;DHT22;5571;48.110;-1.706;2023-11-18T03:21:16;12.00;99.90
11035;DHT22;5571;48.110;-1.706;2023-11-18T03:23:42;12.10;99.90
11035;DHT22;5571;48.110;-1.706;2023-11-18T03:26:08;12.10;99.90
11035;DHT22;5571;48.110;-1.706;2023-11-18T03:28:37;12.10;99.90
11035;DHT22;5571;48.110;-1.706;2023-11-18T03:31:06;12.10;99.90
11035;DHT22;5571;48.110;-1.706;2023-11-18T03:33:33;12.10;99.90
11035;DHT22;5571;48.110;-1.706;2023-11-18T03:35:58;12.10;99.90
11035;DHT22;5571;48.110;-1.706;2023-11-18T03:38:24;12.20;99.90
11035;DHT22;5571;48.110;-1.706;2023-11-18T03:40:50;12.20;99.90
11035;DHT22;5571;48.110;-1.706;2023-11-18T03:43:17;12.20;99.90
11035;DHT22;5571;48.110;-1.706;2023-11-18T03:45:43;12.20;99.90
11035;DHT22;5571;48.110;-1.706;2023-11-18T03:48:08;12.30;99.90
11035;DHT22;5571;48.110;-1.706;2023-11-18T03:50:34;12.30;99.90
11035;DHT22;5571;48.110;-1.706;2023-11-18T03:53:00;12.30;99.90
11035;DHT22;5571;48.110;-1.706;2023-11-18T03:55:29;12.30;99.90
11035;DHT22;5571;48.110;-1.706;2023-11-18T03:57:55;12.40;99.90
11035;DHT22;5571;48.110;-1.706;2023-11-18T04:00:22;12.40;99.90
11035;DHT22;5571;48.110;-1.706;2023-11-18T04:02:48;12.40;99.90
11035;DHT22;5571;48.110;-1.706;2023-11-18T04:05:14;12.40;99.90
11035;DHT22;5571;48.110;-1.706;2023-11-18T04:07:39;12.40;99.90
11035;DHT22;5571;48.110;-1.706;2023-11-18T04:10:07;12.50;99.90
11035;DHT22;5571;48.110;-1.706;2023-11-18T04:12:36;12.50;99.90
11035;DHT22;5571;48.110;-1.706;2023-11-18T04:15:01;12.50;99.90
11035;DHT22;5571;48.110;-1.706;2023-11-18T04:17:27;12.50;99.90
11035;DHT22;5571;48.110;-1.706;2023-11-18T04:19:53;12.50;99.90
11035;DHT22;5571;48.110;-1.706;2023-11-18T04:22:21;12.60;99.90
11035;DHT22;5571;48.110;-1.706;2023-11-18T04:24:47;12.60;99.90
11035;DHT22;5571;48.110;-1.706;2023-11-18T04:27:13;12.60;99.90
11035;DHT22;5571;48.110;-1.706;2023-11-18T04:29:38;12.60;99.90
11035;DHT22;5571;48.110;-1.706;2023-11-18T04:32:06;12.60;99.90
11035;DHT22;5571;48.110;-1.706;2023-11-18T04:34:36;12.60;99.90
11035;DHT22;5571;48.110;-1.706;2023-11-18T04:37:05;12.60;99.90
11035;DHT22;5571;48.110;-1.706;2023-11-18T04:39:34;12.70;99.90
11035;DHT22;5571;48.110;-1.706;2023-11-18T04:42:00;12.70;99.90
11035;DHT22;5571;48.110;-1.706;2023-11-18T04:44:26;12.70;99.90
11035;DHT22;5571;48.110;-1.706;2023-11-18T04:46:52;12.70;99.90
11035;DHT22;5571;48.110;-1.706;2023-11-18T04:49:18;12.70;99.90
11035;DHT22;5571;48.110;-1.706;2023-11-18T04:51:44;12.70;99.90
11035;DHT22;5571;48.110;-1.706;2023-11-18T04:54:10;12.70;99.90
11035;DHT22;5571;48.110;-1.706;2023-11-18T04:56:36;12.70;99.90
11035;DHT22;5571;48.110;-1.706;2023-11-18T04:59:03;12.70;99.90
11035;DHT22;5571;48.110;-1.706;2023-11-18T05:01:30;12.70;99.90
11035;DHT22;5571;48.110;-1.706;2023-11-18T05:03:56;12.70;99.90
11035;DHT22;5571;48.110;-1.706;2023-11-18T05:06:21;12.70;99.90
11035;DHT22;5571;48.110;-1.706;2023-11-18T05:08:47;12.70;99.90
11035;DHT22;5571;48.110;-1.706;2023-11-18T05:11:13;12.70;99.90
11035;DHT22;5571;48.110;-1.706;2023-11-18T05:13:39;12.70;99.90
11035;DHT22;5571;48.110;-1.706;2023-11-18T05:16:08;12.70;99.90
11035;DHT22;5571;48.110;-1.706;2023-11-18T05:18:36;12.70;99.90
11035;DHT22;5571;48.110;-1.706;2023-11-18T05:21:03;12.70;99.90
11035;DHT22;5571;48.110;-1.706;2023-11-18T05:23:30;12.70;99.90
11035;DHT22;5571;48.110;-1.706;2023-11-18T05:25:57;12.70;99.90
11035;DHT22;5571;48.110;-1.706;2023-11-18T05:28:24;12.80;99.90
11035;DHT22;5571;48.110;-1.706;2023-11-18T05:30:50;12.80;99.90
11035;DHT22;5571;48.110;-1.706;2023-11-18T05:33:16;12.80;99.90
11035;DHT22;5571;48.110;-1.706;2023-11-18T05:35:44;12.80;99.90
11035;DHT22;5571;48.110;-1.706;2023-11-18T05:38:18;12.80;99.90
11035;DHT22;5571;48.110;-1.706;2023-11-18T05:40:46;12.80;99.90
11035;DHT22;5571;48.110;-1.706;2023-11-18T05:43:28;12.90;99.90
11035;DHT22;5571;48.110;-1.706;2023-11-18T05:45:55;12.90;99.90
11035;DHT22;5571;48.110;-1.706;2023-11-18T05:48:46;12.90;99.90
11035;DHT22;5571;48.110;-1.706;2023-11-18T05:51:12;12.90;99.90
11035;DHT22;5571;48.110;-1.706;2023-11-18T05:53:41;12.90;99.90
11035;DHT22;5571;48.110;-1.706;2023-11-18T05:56:09;12.90;99.90
11035;DHT22;5571;48.110;-1.706;2023-11-18T05:58:35;13.00;99.90
11035;DHT22;5571;48.110;-1.706;2023-11-18T06:01:00;12.90;99.90
11035;DHT22;5571;48.110;-1.706;2023-11-18T06:03:26;12.90;99.90
11035;DHT22;5571;48.110;-1.706;2023-11-18T06:05:52;12.90;99.90
11035;DHT22;5571;48.110;-1.706;2023-11-18T06:08:17;12.90;99.90
11035;DHT22;5571;48.110;-1.706;2023-11-18T06:10:43;12.90;99.90
11035;DHT22;5571;48.110;-1.706;2023-11-18T06:13:10;12.90;99.90
11035;DHT22;5571;48.110;-1.706;2023-11-18T06:15:38;12.90;99.90
11035;DHT22;5571;48.110;-1.706;2023-11-18T06:18:05;12.90;99.90
11035;DHT22;5571;48.110;-1.706;2023-11-18T06:20:31;12.90;99.90
11035;DHT22;5571;48.110;-1.706;2023-11-18T06:23:01;12.90;99.90
11035;DHT22;5571;48.110;-1.706;2023-11-18T06:25:27;12.90;99.90
11035;DHT22;5571;48.110;-1.706;2023-11-18T06:27:52;12.90;99.90
11035;DHT22;5571;48.110;-1.706;2023-11-18T06:30:18;13.00;99.90
11035;DHT22;5571;48.110;-1.706;2023-11-18T06:32:45;12.90;99.90
11035;DHT22;5571;48.110;-1.706;2023-11-18T06:35:12;12.90;99.90
11035;DHT22;5571;48.110;-1.706;2023-11-18T06:37:40;12.90;99.90
11035;DHT22;5571;48.110;-1.706;2023-11-18T06:40:06;12.90;99.90
11035;DHT22;5571;48.110;-1.706;2023-11-18T06:42:44;12.90;99.90
11035;DHT22;5571;48.110;-1.706;2023-11-18T06:45:14;13.00;99.90
11035;DHT22;5571;48.110;-1.706;2023-11-18T06:47:41;13.00;99.90
11035;DHT22;5571;48.110;-1.706;2023-11-18T06:50:10;12.90;99.90
11035;DHT22;5571;48.110;-1.706;2023-11-18T06:52:41;12.90;99.90
11035;DHT22;5571;48.110;-1.706;2023-11-18T06:55:11;12.90;99.90
11035;DHT22;5571;48.110;-1.706;2023-11-18T06:57:38;12.90;99.90
11035;DHT22;5571;48.110;-1.706;2023-11-18T07:00:05;13.00;99.90
11035;DHT22;5571;48.110;-1.706;2023-11-18T07:02:34;13.00;99.90
11035;DHT22;5571;48.110;-1.706;2023-11-18T07:05:01;13.00;99.90
11035;DHT22;5571;48.110;-1.706;2023-11-18T07:07:26;12.90;99.90
11035;DHT22;5571;48.110;-1.706;2023-11-18T07:09:52;13.00;99.90
11035;DHT22;5571;48.110;-1.706;2023-11-18T07:12:17;13.00;99.90
11035;DHT22;5571;48.110;-1.706;2023-11-18T07:14:45;13.00;99.90
11035;DHT22;5571;48.110;-1.706;2023-11-18T07:17:13;13.00;99.90
11035;DHT22;5571;48.110;-1.706;2023-11-18T07:19:38;13.00;99.90
11035;DHT22;5571;48.110;-1.706;2023-11-18T07:22:05;13.00;99.90
11035;DHT22;5571;48.110;-1.706;2023-11-18T07:24:32;13.00;99.90
11035;DHT22;5571;48.110;-1.706;2023-11-18T07:26:58;13.00;99.90
11035;DHT22;5571;48.110;-1.706;2023-11-18T07:29:25;13.10;99.90
11035;DHT22;5571;48.110;-1.706;2023-11-18T07:31:52;13.00;99.90
11035;DHT22;5571;48.110;-1.706;2023-11-18T07:34:21;13.10;99.90
11035;DHT22;5571;48.110;-1.706;2023-11-18T07:36:49;13.10;99.90
11035;DHT22;5571;48.110;-1.706;2023-11-18T07:39:15;13.10;99.90
11035;DHT22;5571;48.110;-1.706;2023-11-18T07:41:41;13.20;99.90
11035;DHT22;5571;48.110;-1.706;2023-11-18T07:44:07;13.10;99.90
11035;DHT22;5571;48.110;-1.706;2023-11-18T07:46:36;13.20;99.90
11035;DHT22;5571;48.110;-1.706;2023-11-18T07:49:04;13.20;99.90
11035;DHT22;5571;48.110;-1.706;2023-11-18T07:51:29;13.20;99.90
11035;DHT22;5571;48.110;-1.706;2023-11-18T07:53:55;13.20;99.90
11035;DHT22;5571;48.110;-1.706;2023-11-18T07:56:20;13.20;99.90
11035;DHT22;5571;48.110;-1.706;2023-11-18T07:58:49;13.20;99.90
11035;DHT22;5571;48.110;-1.706;2023-11-18T08:01:16;13.30;99.90
11035;DHT22;5571;48.110;-1.706;2023-11-18T08:03:42;13.30;99.90
11035;DHT22;5571;48.110;-1.706;2023-11-18T08:06:08;13.30;99.90
11035;DHT22;5571;48.110;-1.706;2023-11-18T08:08:35;13.30;99.90
11035;DHT22;5571;48.110;-1.706;2023-11-18T08:11:07;13.30;99.90
11035;DHT22;5571;48.110;-1.706;2023-11-18T08:13:33;13.30;99.90
11035;DHT22;5571;48.110;-1.706;2023-11-18T08:15:59;13.40;99.90
11035;DHT22;5571;48.110;-1.706;2023-11-18T08:18:24;13.40;99.90
11035;DHT22;5571;48.110;-1.706;2023-11-18T08:20:50;13.40;99.90
11035;DHT22;5571;48.110;-1.706;2023-11-18T08:23:16;13.40;99.90
11035;DHT22;5571;48.110;-1.706;2023-11-18T08:25:41;13.40;99.90
11035;DHT22;5571;48.110;-1.706;2023-11-18T08:28:08;13.40;99.90
11035;DHT22;5571;48.110;-1.706;2023-11-18T08:30:34;13.50;99.90
11035;DHT22;5571;48.110;-1.706;2023-11-18T08:33:00;13.50;99.90
11035;DHT22;5571;48.110;-1.706;2023-11-18T08:35:26;13.50;99.90
11035;DHT22;5571;48.110;-1.706;2023-11-18T08:37:51;13.50;99.90
11035;DHT22;5571;48.110;-1.706;2023-11-18T08:40:17;13.60;99.90
11035;DHT22;5571;48.110;-1.706;2023-11-18T08:42:48;13.60;99.90
11035;DHT22;5571;48.110;-1.706;2023-11-18T08:45:19;13.60;99.90
11035;DHT22;5571;48.110;-1.706;2023-11-18T08:47:47;13.60;99.90
11035;DHT22;5571;48.110;-1.706;2023-11-18T08:50:16;13.60;99.90
11035;DHT22;5571;48.110;-1.706;2023-11-18T08:52:45;13.70;99.90
11035;DHT22;5571;48.110;-1.706;2023-11-18T08:55:15;13.70;99.90
11035;DHT22;5571;48.110;-1.706;2023-11-18T08:57:49;13.80;99.90
11035;DHT22;5571;48.110;-1.706;2023-11-18T09:00:26;13.80;99.90
11035;DHT22;5571;48.110;-1.706;2023-11-18T09:03:18;13.90;99.90
11035;DHT22;5571;48.110;-1.706;2023-11-18T09:05:45;13.90;99.90
11035;DHT22;5571;48.110;-1.706;2023-11-18T09:10:53;13.90;99.90
11035;DHT22;5571;48.110;-1.706;2023-11-18T09:13:25;14.00;99.90
11035;DHT22;5571;48.110;-1.706;2023-11-18T09:15:55;14.00;99.90
11035;DHT22;5571;48.110;-1.706;2023-11-18T09:18:22;14.00;99.90
11035;DHT22;5571;48.110;-1.706;2023-11-18T09:20:47;14.00;99.90
11035;DHT22;5571;48.110;-1.706;2023-11-18T09:23:14;14.00;99.90
11035;DHT22;5571;48.110;-1.706;2023-11-18T09:25:42;14.10;99.90
11035;DHT22;5571;48.110;-1.706;2023-11-18T09:28:07;14.10;99.90
11035;DHT22;5571;48.110;-1.706;2023-11-18T09:30:37;14.10;99.90
11035;DHT22;5571;48.110;-1.706;2023-11-18T09:33:04;14.10;99.90
11035;DHT22;5571;48.110;-1.706;2023-11-18T09:35:40;14.20;99.90
11035;DHT22;5571;48.110;-1.706;2023-11-18T09:38:06;14.20;99.90
11035;DHT22;5571;48.110;-1.706;2023-11-18T09:40:32;14.20;99.90
11035;DHT22;5571;48.110;-1.706;2023-11-18T09:43:03;14.20;99.90
11035;DHT22;5571;48.110;-1.706;2023-11-18T09:45:34;14.20;99.90
11035;DHT22;5571;48.110;-1.706;2023-11-18T09:48:01;14.20;99.90
11035;DHT22;5571;48.110;-1.706;2023-11-18T09:50:33;14.30;99.90
11035;DHT22;5571;48.110;-1.706;2023-11-18T09:53:07;14.20;99.90
11035;DHT22;5571;48.110;-1.706;2023-11-18T09:55:52;14.20;99.90
11035;DHT22;5571;48.110;-1.706;2023-11-18T09:58:20;14.20;99.90
11035;DHT22;5571;48.110;-1.706;2023-11-18T10:00:50;14.30;99.90
11035;DHT22;5571;48.110;-1.706;2023-11-18T10:03:16;14.30;99.90
11035;DHT22;5571;48.110;-1.706;2023-11-18T10:05:42;14.20;99.90
11035;DHT22;5571;48.110;-1.706;2023-11-18T10:08:08;14.30;99.90
11035;DHT22;5571;48.110;-1.706;2023-11-18T10:10:35;14.30;99.90
11035;DHT22;5571;48.110;-1.706;2023-11-18T10:13:02;14.30;99.90
11035;DHT22;5571;48.110;-1.706;2023-11-18T10:15:30;14.30;99.90
11035;DHT22;5571;48.110;-1.706;2023-11-18T10:17:57;14.40;99.90
11035;DHT22;5571;48.110;-1.706;2023-11-18T10:20:48;14.30;99.90
11035;DHT22;5571;48.110;-1.706;2023-11-18T10:23:18;14.40;99.90
11035;DHT22;5571;48.110;-1.706;2023-11-18T10:25:51;14.40;99.90
11035;DHT22;5571;48.110;-1.706;2023-11-18T10:28:35;14.30;99.90
11035;DHT22;5571;48.110;-1.706;2023-11-18T10:31:04;14.40;99.90
11035;DHT22;5571;48.110;-1.706;2023-11-18T10:33:38;14.40;99.90
11035;DHT22;5571;48.110;-1.706;2023-11-18T10:36:17;14.40;99.90
11035;DHT22;5571;48.110;-1.706;2023-11-18T10:38:48;14.40;99.90
11035;DHT22;5571;48.110;-1.706;2023-11-18T10:41:15;14.40;99.90
11035;DHT22;5571;48.110;-1.706;2023-11-18T10:43:45;14.40;99.90
11035;DHT22;5571;48.110;-1.706;2023-11-18T10:46:12;14.50;99.90
11035;DHT22;5571;48.110;-1.706;2023-11-18T10:48:42;14.40;99.90
11035;DHT22;5571;48.110;-1.706;2023-11-18T10:51:13;14.50;99.90
11035;DHT22;5571;48.110;-1.706;2023-11-18T10:53:40;14.50;99.90
11035;DHT22;5571;48.110;-1.706;2023-11-18T10:56:19;14.60;99.90
11035;DHT22;5571;48.110;-1.706;2023-11-18T10:58:50;14.60;99.90
11035;DHT22;5571;48.110;-1.706;2023-11-18T11:01:18;14.70;99.90
11035;DHT22;5571;48.110;-1.706;2023-11-18T11:03:53;14.60;99.90
11035;DHT22;5571;48.110;-1.706;2023-11-18T11:06:24;14.70;99.90
11035;DHT22;5571;48.110;-1.706;2023-11-18T11:08:52;14.70;99.90
11035;DHT22;5571;48.110;-1.706;2023-11-18T11:11:22;14.70;99.90
11035;DHT22;5571;48.110;-1.706;2023-11-18T11:13:57;14.70;99.90
11035;DHT22;5571;48.110;-1.706;2023-11-18T11:16:28;14.80;99.90
11035;DHT22;5571;48.110;-1.706;2023-11-18T11:19:01;14.80;99.90
11035;DHT22;5571;48.110;-1.706;2023-11-18T11:21:37;14.80;99.90
11035;DHT22;5571;48.110;-1.706;2023-11-18T11:24:20;14.80;99.90
11035;DHT22;5571;48.110;-1.706;2023-11-18T11:27:17;14.80;99.90
11035;DHT22;5571;48.110;-1.706;2023-11-18T11:30:03;14.90;99.90
11035;DHT22;5571;48.110;-1.706;2023-11-18T11:32:45;14.90;99.90
11035;DHT22;5571;48.110;-1.706;2023-11-18T11:35:23;14.90;99.90
11035;DHT22;5571;48.110;-1.706;2023-11-18T11:37:49;14.90;99.90
11035;DHT22;5571;48.110;-1.706;2023-11-18T11:40:15;14.90;99.90
11035;DHT22;5571;48.110;-1.706;2023-11-18T11:42:49;14.90;99.90
11035;DHT22;5571;48.110;-1.706;2023-11-18T11:45:21;14.90;99.90
11035;DHT22;5571;48.110;-1.706;2023-11-18T11:47:49;14.90;99.90
11035;DHT22;5571;48.110;-1.706;2023-11-18T11:50:22;14.90;99.90
11035;DHT22;5571;48.110;-1.706;2023-11-18T11:53:07;14.90;99.90
11035;DHT22;5571;48.110;-1.706;2023-11-18T11:55:47;15.00;99.90
11035;DHT22;5571;48.110;-1.706;2023-11-18T11:58:30;15.00;99.90
11035;DHT22;5571;48.110;-1.706;2023-11-18T12:01:14;15.10;99.90
11035;DHT22;5571;48.110;-1.706;2023-11-18T12:03:43;15.10;99.90
11035;DHT22;5571;48.110;-1.706;2023-11-18T12:06:17;15.10;99.90
11035;DHT22;5571;48.110;-1.706;2023-11-18T12:08:46;15.10;99.90
11035;DHT22;5571;48.110;-1.706;2023-11-18T12:11:14;15.10;99.90
11035;DHT22;5571;48.110;-1.706;2023-11-18T12:14:03;15.20;99.90
11035;DHT22;5571;48.110;-1.706;2023-11-18T12:16:59;15.20;99.90
11035;DHT22;5571;48.110;-1.706;2023-11-18T12:19:47;15.30;99.90
11035;DHT22;5571;48.110;-1.706;2023-11-18T12:22:20;15.30;99.90
11035;DHT22;5571;48.110;-1.706;2023-11-18T12:35:27;15.50;99.90
11035;DHT22;5571;48.110;-1.706;2023-11-18T12:40:54;15.60;99.90
11035;DHT22;5571;48.110;-1.706;2023-11-18T12:43:56;15.60;99.90
11035;DHT22;5571;48.110;-1.706;2023-11-18T12:49:19;15.80;99.90
11035;DHT22;5571;48.110;-1.706;2023-11-18T12:51:52;15.80;99.90
11035;DHT22;5571;48.110;-1.706;2023-11-18T12:54:19;15.90;99.90
11035;DHT22;5571;48.110;-1.706;2023-11-18T12:56:46;15.90;99.90
11035;DHT22;5571;48.110;-1.706;2023-11-18T12:59:16;15.90;99.90
11035;DHT22;5571;48.110;-1.706;2023-11-18T13:01:44;15.90;99.90
11035;DHT22;5571;48.110;-1.706;2023-11-18T13:04:16;15.90;99.90
11035;DHT22;5571;48.110;-1.706;2023-11-18T13:06:42;16.00;99.90
11035;DHT22;5571;48.110;-1.706;2023-11-18T13:09:08;16.00;99.90
11035;DHT22;5571;48.110;-1.706;2023-11-18T13:11:36;16.00;99.90
11035;DHT22;5571;48.110;-1.706;2023-11-18T13:14:04;16.00;99.90
11035;DHT22;5571;48.110;-1.706;2023-11-18T13:16:29;16.00;99.90
11035;DHT22;5571;48.110;-1.706;2023-11-18T13:18:55;16.00;99.90
11035;DHT22;5571;48.110;-1.706;2023-11-18T13:21:21;16.00;99.90
11035;DHT22;5571;48.110;-1.706;2023-11-18T13:23:52;15.90;99.90
11035;DHT22;5571;48.110;-1.706;2023-11-18T13:26:19;16.00;99.90
11035;DHT22;5571;48.110;-1.706;2023-11-18T13:28:46;16.00;99.90
11035;DHT22;5571;48.110;-1.706;2023-11-18T13:31:12;16.00;99.90
11035;DHT22;5571;48.110;-1.706;2023-11-18T13:33:42;15.90;99.90
11035;DHT22;5571;48.110;-1.706;2023-11-18T13:36:09;15.90;99.90
11035;DHT22;5571;48.110;-1.706;2023-11-18T13:38:36;15.90;99.90
11035;DHT22;5571;48.110;-1.706;2023-11-18T13:41:03;15.90;99.90
11035;DHT22;5571;48.110;-1.706;2023-11-18T13:43:44;16.00;99.90
11035;DHT22;5571;48.110;-1.706;2023-11-18T13:46:11;16.00;99.90
11035;DHT22;5571;48.110;-1.706;2023-11-18T13:48:37;15.90;99.90
11035;DHT22;5571;48.110;-1.706;2023-11-18T13:51:12;15.90;99.90
11035;DHT22;5571;48.110;-1.706;2023-11-18T13:53:39;15.80;99.90
11035;DHT22;5571;48.110;-1.706;2023-11-18T13:56:09;15.90;99.90
11035;DHT22;5571;48.110;-1.706;2023-11-18T13:58:36;15.80;99.90
11035;DHT22;5571;48.110;-1.706;2023-11-18T14:01:08;15.90;99.90
11035;DHT22;5571;48.110;-1.706;2023-11-18T14:03:35;15.80;99.90
11035;DHT22;5571;48.110;-1.706;2023-11-18T14:06:05;15.80;99.90
11035;DHT22;5571;48.110;-1.706;2023-11-18T14:08:31;15.80;99.90
11035;DHT22;5571;48.110;-1.706;2023-11-18T14:10:57;15.80;99.90
11035;DHT22;5571;48.110;-1.706;2023-11-18T14:13:23;15.80;99.90
11035;DHT22;5571;48.110;-1.706;2023-11-18T14:15:48;15.70;99.90
11035;DHT22;5571;48.110;-1.706;2023-11-18T14:18:20;15.70;99.90
11035;DHT22;5571;48.110;-1.706;2023-11-18T14:20:46;15.80;99.90
11035;DHT22;5571;48.110;-1.706;2023-11-18T14:23:13;15.70;99.90
11035;DHT22;5571;48.110;-1.706;2023-11-18T14:25:39;15.60;99.90
11035;DHT22;5571;48.110;-1.706;2023-11-18T14:28:05;15.70;99.90
11035;DHT22;5571;48.110;-1.706;2023-11-18T14:30:34;15.60;99.90
11035;DHT22;5571;48.110;-1.706;2023-11-18T14:33:00;15.60;99.90
11035;DHT22;5571;48.110;-1.706;2023-11-18T14:35:26;15.60;99.90
11035;DHT22;5571;48.110;-1.706;2023-11-18T14:37:51;15.60;99.90
11035;DHT22;5571;48.110;-1.706;2023-11-18T14:40:17;15.60;99.90
11035;DHT22;5571;48.110;-1.706;2023-11-18T14:42:47;15.60;99.90
11035;DHT22;5571;48.110;-1.706;2023-11-18T14:45:16;15.60;99.90
11035;DHT22;5571;48.110;-1.706;2023-11-18T14:47:42;15.60;99.90
11035;DHT22;5571;48.110;-1.706;2023-11-18T14:50:13;15.50;99.90
11035;DHT22;5571;48.110;-1.706;2023-11-18T14:52:47;15.50;99.90
11035;DHT22;5571;48.110;-1.706;2023-11-18T14:55:14;15.60;99.90
11035;DHT22;5571;48.110;-1.706;2023-11-18T14:57:45;15.50;99.90
11035;DHT22;5571;48.110;-1.706;2023-11-18T15:00:12;15.50;99.90
11035;DHT22;5571;48.110;-1.706;2023-11-18T15:02:51;15.50;99.90
11035;DHT22;5571;48.110;-1.706;2023-11-18T15:05:21;15.50;99.90
11035;DHT22;5571;48.110;-1.706;2023-11-18T15:07:51;15.50;99.90
11035;DHT22;5571;48.110;-1.706;2023-11-18T15:10:21;15.50;99.90
11035;DHT22;5571;48.110;-1.706;2023-11-18T15:12:52;15.50;99.90
11035;DHT22;5571;48.110;-1.706;2023-11-18T15:15:22;15.50;99.90
11035;DHT22;5571;48.110;-1.706;2023-11-18T15:17:56;15.50;99.90
11035;DHT22;5571;48.110;-1.706;2023-11-18T15:20:22;15.50;99.90
11035;DHT22;5571;48.110;-1.706;2023-11-18T15:22:49;15.50;99.90
11035;DHT22;5571;48.110;-1.706;2023-11-18T15:25:14;15.50;99.90
11035;DHT22;5571;48.110;-1.706;2023-11-18T15:27:43;15.50;99.90
11035;DHT22;5571;48.110;-1.706;2023-11-18T15:30:11;15.50;99.90
11035;DHT22;5571;48.110;-1.706;2023-11-18T15:32:41;15.50;99.90
11035;DHT22;5571;48.110;-1.706;2023-11-18T15:35:08;15.50;99.90
11035;DHT22;5571;48.110;-1.706;2023-11-18T15:37:37;15.60;99.90
11035;DHT22;5571;48.110;-1.706;2023-11-18T15:40:08;15.60;99.90
11035;DHT22;5571;48.110;-1.706;2023-11-18T15:42:41;15.60;99.90
11035;DHT22;5571;48.110;-1.706;2023-11-18T15:45:11;15.60;99.90
11035;DHT22;5571;48.110;-1.706;2023-11-18T15:47:41;15.60;99.90
11035;DHT22;5571;48.110;-1.706;2023-11-18T15:50:09;15.70;99.90
11035;DHT22;5571;48.110;-1.706;2023-11-18T15:52:41;15.70;99.90
11035;DHT22;5571;48.110;-1.706;2023-11-18T15:55:07;15.70;99.90
11035;DHT22;5571;48.110;-1.706;2023-11-18T15:57:40;15.60;99.90
11035;DHT22;5571;48.110;-1.706;2023-11-18T16:00:06;15.60;99.90